createdAt,value
2018-08-19T00:00:25.751Z,12.47
2018-08-19T00:00:56.987Z,12.63
2018-08-19T00:01:28.160Z,12.97
2018-08-19T00:01:59.277Z,12.83
2018-08-19T00:02:30.388Z,12.67
2018-08-19T00:03:01.504Z,12.63
2018-08-19T00:03:32.717Z,12.87
2018-08-19T00:04:03.888Z,12.87
2018-08-19T00:04:34.997Z,12.40
2018-08-19T00:05:06.115Z,13.53
2018-08-19T00:05:37.286Z,13.83
2018-08-19T00:06:08.396Z,13.03
2018-08-19T00:06:39.579Z,13.50
2018-08-19T00:07:10.692Z,13.00
2018-08-19T00:07:41.869Z,13.13
2018-08-19T00:08:12.984Z,12.93
2018-08-19T00:08:44.127Z,13.40
2018-08-19T00:09:15.312Z,12.47
2018-08-19T00:09:46.443Z,13.47
2018-08-19T00:10:17.622Z,12.70
2018-08-19T00:10:48.748Z,12.50
2018-08-19T00:11:19.918Z,12.70
2018-08-19T00:11:51.101Z,13.00
2018-08-19T00:12:22.289Z,12.43
2018-08-19T00:12:53.427Z,12.90
2018-08-19T00:13:24.541Z,13.07
2018-08-19T00:13:55.755Z,12.90
2018-08-19T00:14:26.988Z,13.67
2018-08-19T00:14:58.111Z,12.10
2018-08-19T00:15:29.624Z,12.93
2018-08-19T00:16:00.789Z,13.87
2018-08-19T00:16:31.924Z,14.53
2018-08-19T00:17:03.025Z,13.60
2018-08-19T00:17:34.613Z,14.03
2018-08-19T00:18:05.849Z,14.00
2018-08-19T00:18:36.984Z,14.00
2018-08-19T00:19:08.204Z,14.30
2018-08-19T00:19:39.456Z,14.40
2018-08-19T00:20:10.640Z,13.27
2018-08-19T00:20:41.818Z,14.10
2018-08-19T00:21:12.940Z,14.17
2018-08-19T00:21:44.193Z,13.93
2018-08-19T00:22:15.402Z,14.77
2018-08-19T00:22:46.668Z,14.50
2018-08-19T00:23:17.845Z,14.67
2018-08-19T00:23:49.017Z,13.57
2018-08-19T00:24:20.188Z,13.73
2018-08-19T00:24:51.340Z,14.47
2018-08-19T00:25:22.561Z,13.63
2018-08-19T00:25:53.789Z,13.50
2018-08-19T00:26:24.909Z,13.47
2018-08-19T00:26:56.076Z,12.40
2018-08-19T00:27:27.270Z,14.17
2018-08-19T00:27:58.375Z,14.23
2018-08-19T00:28:29.493Z,14.40
2018-08-19T00:29:00.668Z,14.53
2018-08-19T00:29:31.839Z,14.63
2018-08-19T00:30:03.016Z,15.63
2018-08-19T00:30:34.180Z,13.90
2018-08-19T00:31:05.350Z,13.47
2018-08-19T00:31:36.472Z,14.03
2018-08-19T00:32:07.641Z,14.17
2018-08-19T00:32:38.813Z,13.90
2018-08-19T00:33:09.992Z,14.13
2018-08-19T00:33:41.159Z,14.17
2018-08-19T00:34:12.333Z,13.10
2018-08-19T00:34:43.479Z,13.93
2018-08-19T00:35:14.661Z,13.43
2018-08-19T00:35:45.819Z,14.27
2018-08-19T00:36:16.992Z,14.17
2018-08-19T00:36:48.167Z,13.37
2018-08-19T00:37:19.293Z,12.93
2018-08-19T00:37:50.465Z,13.70
2018-08-19T00:38:21.581Z,13.03
2018-08-19T00:38:52.760Z,13.30
2018-08-19T00:39:23.989Z,14.40
2018-08-19T00:39:55.210Z,13.03
2018-08-19T00:40:26.320Z,13.77
2018-08-19T00:40:57.546Z,12.93
2018-08-19T00:41:28.721Z,14.63
2018-08-19T00:41:59.836Z,13.30
2018-08-19T00:42:31.045Z,14.57
2018-08-19T00:43:02.244Z,14.10
2018-08-19T00:43:33.363Z,13.67
2018-08-19T00:44:04.525Z,13.70
2018-08-19T00:44:35.648Z,12.30
2018-08-19T00:45:06.758Z,13.23
2018-08-19T00:45:37.963Z,14.03
2018-08-19T00:46:09.083Z,13.40
2018-08-19T00:46:40.256Z,13.33
2018-08-19T00:47:11.428Z,13.87
2018-08-19T00:47:42.583Z,13.90
2018-08-19T00:48:13.732Z,13.73
2018-08-19T00:48:44.850Z,13.20
2018-08-19T00:49:16.031Z,14.40
2018-08-19T00:49:47.144Z,14.23
2018-08-19T00:50:18.315Z,13.83
2018-08-19T00:50:49.488Z,14.20
2018-08-19T00:51:20.652Z,15.07
2018-08-19T00:51:51.771Z,14.10
2018-08-19T00:52:22.945Z,13.80
2018-08-19T00:52:54.169Z,14.47
2018-08-19T00:53:25.352Z,14.57
2018-08-19T00:53:56.612Z,14.10
2018-08-19T00:54:27.837Z,14.20
2018-08-19T00:54:59.069Z,14.87
2018-08-19T00:55:30.323Z,14.43
2018-08-19T00:56:01.534Z,14.00
2018-08-19T00:56:32.656Z,13.73
2018-08-19T00:57:03.813Z,14.07
2018-08-19T00:57:34.933Z,14.57
2018-08-19T00:58:06.105Z,14.73
2018-08-19T00:58:37.358Z,13.87
2018-08-19T00:59:08.540Z,14.23
2018-08-19T00:59:39.665Z,14.60
2018-08-19T01:00:10.780Z,14.47
2018-08-19T01:00:41.925Z,13.97
2018-08-19T01:01:13.155Z,14.80
2018-08-19T01:01:44.323Z,14.73
2018-08-19T01:02:15.438Z,15.37
2018-08-19T01:02:46.604Z,15.40
2018-08-19T01:03:17.776Z,15.67
2018-08-19T01:03:49.002Z,15.07
2018-08-19T01:04:20.187Z,15.27
2018-08-19T01:04:51.303Z,15.90
2018-08-19T01:05:22.478Z,15.17
2018-08-19T01:05:53.595Z,15.73
2018-08-19T01:06:24.831Z,15.20
2018-08-19T01:06:56.021Z,15.03
2018-08-19T01:07:27.196Z,14.30
2018-08-19T01:07:58.374Z,14.33
2018-08-19T01:08:29.574Z,14.40
2018-08-19T01:09:00.811Z,15.37
2018-08-19T01:09:31.939Z,12.90
2018-08-19T01:10:03.165Z,14.30
2018-08-19T01:10:34.281Z,14.20
2018-08-19T01:11:05.455Z,13.97
2018-08-19T01:11:36.608Z,14.47
2018-08-19T01:12:07.799Z,14.20
2018-08-19T01:12:38.970Z,15.40
2018-08-19T01:13:10.205Z,15.17
2018-08-19T01:13:41.333Z,14.20
2018-08-19T01:14:12.507Z,15.63
2018-08-19T01:14:43.733Z,13.97
2018-08-19T01:15:14.855Z,14.57
2018-08-19T01:15:46.019Z,14.07
2018-08-19T01:16:17.196Z,14.10
2018-08-19T01:16:48.392Z,14.83
2018-08-19T01:17:19.519Z,15.23
2018-08-19T01:17:50.688Z,14.87
2018-08-19T01:18:21.800Z,15.40
2018-08-19T01:18:52.919Z,14.43
2018-08-19T01:19:24.081Z,14.50
2018-08-19T01:19:55.231Z,14.40
2018-08-19T01:20:26.405Z,14.67
2018-08-19T01:20:57.573Z,13.70
2018-08-19T01:21:28.683Z,14.50
2018-08-19T01:21:59.889Z,15.00
2018-08-19T01:22:31.080Z,14.47
2018-08-19T01:23:02.180Z,15.43
2018-08-19T01:23:33.291Z,14.77
2018-08-19T01:24:04.399Z,14.30
2018-08-19T01:24:35.579Z,14.43
2018-08-19T01:25:06.698Z,14.50
2018-08-19T01:25:37.880Z,15.40
2018-08-19T01:26:09.041Z,14.73
2018-08-19T01:26:40.269Z,15.97
2018-08-19T01:27:11.434Z,15.13
2018-08-19T01:27:42.606Z,15.93
2018-08-19T01:28:13.824Z,15.17
2018-08-19T01:28:44.947Z,16.70
2018-08-19T01:29:16.126Z,16.27
2018-08-19T01:29:47.296Z,16.27
2018-08-19T01:30:18.515Z,17.37
2018-08-19T01:30:49.677Z,17.03
2018-08-19T01:31:20.838Z,18.53
2018-08-19T01:31:51.997Z,17.70
2018-08-19T01:32:23.124Z,18.00
2018-08-19T01:32:54.315Z,17.80
2018-08-19T01:33:25.445Z,17.57
2018-08-19T01:33:56.552Z,16.83
2018-08-19T01:34:27.702Z,17.27
2018-08-19T01:34:58.874Z,17.97
2018-08-19T01:35:30.076Z,17.70
2018-08-19T01:36:01.231Z,17.80
2018-08-19T01:36:32.398Z,17.53
2018-08-19T01:37:03.580Z,16.90
2018-08-19T01:37:34.759Z,17.90
2018-08-19T01:38:06.006Z,16.90
2018-08-19T01:38:37.118Z,17.87
2018-08-19T01:39:08.232Z,17.73
2018-08-19T01:39:39.345Z,16.77
2018-08-19T01:40:10.455Z,17.03
2018-08-19T01:40:41.607Z,16.27
2018-08-19T01:41:12.821Z,15.90
2018-08-19T01:41:44.052Z,15.90
2018-08-19T01:42:15.180Z,16.77
2018-08-19T01:42:46.288Z,16.30
2018-08-19T01:43:17.543Z,15.90
2018-08-19T01:43:48.684Z,16.53
2018-08-19T01:44:19.911Z,16.90
2018-08-19T01:44:51.039Z,16.23
2018-08-19T01:45:22.222Z,16.03
2018-08-19T01:45:53.332Z,16.83
2018-08-19T01:46:24.555Z,16.10
2018-08-19T01:46:55.668Z,15.90
2018-08-19T01:47:26.830Z,15.37
2018-08-19T01:47:57.939Z,16.07
2018-08-19T01:48:29.064Z,16.13
2018-08-19T01:49:00.191Z,16.07
2018-08-19T01:49:31.317Z,16.83
2018-08-19T01:50:02.499Z,16.17
2018-08-19T01:50:33.667Z,16.32
2018-08-19T01:51:04.796Z,17.30
2018-08-19T01:51:35.954Z,16.53
2018-08-19T01:52:07.117Z,16.17
2018-08-19T01:52:38.248Z,16.20
2018-08-19T01:53:09.369Z,16.82
2018-08-19T01:53:40.496Z,15.85
2018-08-19T01:54:11.724Z,16.13
2018-08-19T01:54:42.904Z,16.53
2018-08-19T01:55:14.144Z,16.37
2018-08-19T01:55:45.278Z,15.90
2018-08-19T01:56:16.406Z,16.57
2018-08-19T01:56:47.656Z,16.10
2018-08-19T01:57:18.765Z,16.37
2018-08-19T01:57:49.999Z,17.55
2018-08-19T01:58:21.275Z,17.50
2018-08-19T01:58:52.509Z,17.20
2018-08-19T01:59:23.729Z,16.80
2018-08-19T01:59:54.920Z,17.40
2018-08-19T02:00:26.108Z,17.10
2018-08-19T02:00:57.264Z,16.17
2018-08-19T02:01:28.444Z,17.40
2018-08-19T02:01:59.579Z,18.12
2018-08-19T02:02:30.752Z,17.05
2018-08-19T02:03:01.891Z,18.00
2018-08-19T02:03:33.120Z,17.40
2018-08-19T02:04:04.296Z,19.30
2018-08-19T02:04:35.432Z,17.40
2018-08-19T02:05:06.550Z,18.07
2018-08-19T02:05:37.672Z,17.37
2018-08-19T02:06:08.836Z,17.43
2018-08-19T02:06:40.026Z,18.40
2018-08-19T02:07:11.244Z,17.65
2018-08-19T02:07:42.372Z,18.37
2018-08-19T02:08:13.601Z,17.85
2018-08-19T02:08:44.731Z,19.20
2018-08-19T02:09:15.848Z,18.60
2018-08-19T02:09:47.017Z,18.00
2018-08-19T02:10:18.192Z,18.73
2018-08-19T02:10:49.319Z,17.82
2018-08-19T02:11:20.436Z,18.73
2018-08-19T02:11:51.544Z,17.80
2018-08-19T02:12:22.754Z,17.60
2018-08-19T02:12:53.875Z,17.00
2018-08-19T02:13:24.992Z,17.35
2018-08-19T02:13:56.167Z,16.15
2018-08-19T02:14:27.284Z,17.02
2018-08-19T02:14:58.415Z,15.72
2018-08-19T02:15:29.594Z,16.77
2018-08-19T02:16:00.772Z,16.90
2018-08-19T02:16:31.897Z,16.57
2018-08-19T02:17:03.076Z,16.60
2018-08-19T02:17:34.197Z,16.87
2018-08-19T02:18:05.323Z,16.42
2018-08-19T02:18:36.455Z,16.57
2018-08-19T02:19:07.680Z,15.83
2018-08-19T02:19:38.808Z,16.42
2018-08-19T02:20:09.993Z,17.12
2018-08-19T02:20:41.223Z,16.50
2018-08-19T02:21:12.386Z,16.42
2018-08-19T02:21:43.617Z,17.27
2018-08-19T02:22:14.775Z,17.00
2018-08-19T02:22:45.957Z,17.07
2018-08-19T02:23:17.193Z,17.05
2018-08-19T02:23:48.366Z,16.60
2018-08-19T02:24:19.503Z,17.25
2018-08-19T02:24:50.621Z,17.25
2018-08-19T02:25:21.813Z,16.87
2018-08-19T02:25:53.005Z,17.15
2018-08-19T02:26:24.168Z,17.70
2018-08-19T02:26:55.289Z,17.82
2018-08-19T02:27:26.462Z,17.40
2018-08-19T02:27:57.580Z,17.27
2018-08-19T02:28:28.749Z,18.17
2018-08-19T02:28:59.863Z,17.00
2018-08-19T02:29:31.089Z,18.05
2018-08-19T02:30:02.324Z,16.80
2018-08-19T02:30:33.448Z,17.50
2018-08-19T02:31:04.596Z,16.77
2018-08-19T02:31:35.719Z,17.25
2018-08-19T02:32:06.894Z,16.90
2018-08-19T02:32:38.092Z,16.75
2018-08-19T02:33:09.217Z,16.35
2018-08-19T02:33:40.477Z,16.45
2018-08-19T02:34:11.606Z,16.23
2018-08-19T02:34:42.730Z,17.27
2018-08-19T02:35:13.905Z,16.97
2018-08-19T02:35:45.160Z,16.77
2018-08-19T02:36:16.420Z,17.70
2018-08-19T02:36:47.608Z,16.90
2018-08-19T02:37:18.732Z,17.10
2018-08-19T02:37:49.897Z,17.70
2018-08-19T02:38:21.024Z,17.67
2018-08-19T02:38:52.203Z,17.92
2018-08-19T02:39:23.336Z,17.17
2018-08-19T02:39:54.525Z,17.30
2018-08-19T02:40:25.701Z,17.75
2018-08-19T02:40:56.905Z,17.30
2018-08-19T02:41:28.064Z,18.15
2018-08-19T02:41:59.240Z,17.02
2018-08-19T02:42:30.480Z,17.23
2018-08-19T02:43:01.620Z,18.30
2018-08-19T02:43:32.787Z,18.23
2018-08-19T02:44:03.992Z,17.80
2018-08-19T02:44:35.176Z,17.75
2018-08-19T02:45:06.357Z,18.07
2018-08-19T02:45:37.476Z,18.20
2018-08-19T02:46:08.680Z,17.57
2018-08-19T02:46:39.855Z,17.27
2018-08-19T02:47:11.024Z,18.17
2018-08-19T02:47:42.213Z,17.12
2018-08-19T02:48:13.450Z,17.32
2018-08-19T02:48:44.585Z,17.25
2018-08-19T02:49:15.779Z,16.50
2018-08-19T02:49:46.900Z,16.32
2018-08-19T02:50:18.071Z,16.40
2018-08-19T02:50:49.231Z,16.85
2018-08-19T02:51:20.355Z,16.27
2018-08-19T02:51:51.563Z,15.75
2018-08-19T02:52:22.810Z,17.02
2018-08-19T02:52:54.045Z,16.70
2018-08-19T02:53:25.155Z,17.07
2018-08-19T02:53:56.330Z,16.12
2018-08-19T02:54:27.614Z,16.05
2018-08-19T02:54:58.783Z,16.75
2018-08-19T02:55:29.896Z,16.57
2018-08-19T02:56:01.064Z,17.02
2018-08-19T02:56:32.298Z,16.60
2018-08-19T02:57:03.492Z,16.60
2018-08-19T02:57:34.789Z,16.77
2018-08-19T02:58:06.030Z,16.90
2018-08-19T02:58:37.217Z,16.17
2018-08-19T02:59:08.328Z,16.90
2018-08-19T02:59:39.444Z,16.67
2018-08-19T03:00:10.560Z,16.85
2018-08-19T03:00:41.785Z,16.32
2018-08-19T03:01:12.913Z,16.05
2018-08-19T03:01:44.095Z,15.98
2018-08-19T03:02:15.294Z,16.33
2018-08-19T03:02:46.522Z,16.63
2018-08-19T03:03:17.646Z,16.10
2018-08-19T03:03:48.757Z,16.57
2018-08-19T03:04:19.939Z,16.30
2018-08-19T03:04:51.056Z,16.17
2018-08-19T03:05:22.228Z,16.48
2018-08-19T03:05:53.408Z,16.48
2018-08-19T03:06:24.588Z,16.10
2018-08-19T03:06:55.756Z,16.12
2018-08-19T03:07:26.916Z,16.52
2018-08-19T03:07:58.031Z,15.90
2018-08-19T03:08:29.180Z,17.02
2018-08-19T03:09:00.356Z,17.02
2018-08-19T03:09:31.521Z,15.72
2018-08-19T03:10:03.310Z,16.15
2018-08-19T03:10:34.420Z,16.32
2018-08-19T03:11:05.645Z,16.65
2018-08-19T03:11:36.833Z,15.83
2018-08-19T03:12:08.047Z,16.37
2018-08-19T03:12:39.198Z,16.75
2018-08-19T03:13:10.372Z,17.32
2018-08-19T03:13:41.488Z,15.80
2018-08-19T03:14:12.601Z,16.82
2018-08-19T03:14:43.772Z,16.70
2018-08-19T03:15:15.021Z,16.07
2018-08-19T03:15:46.164Z,16.02
2018-08-19T03:16:17.280Z,17.15
2018-08-19T03:16:48.401Z,16.30
2018-08-19T03:17:19.585Z,16.00
2018-08-19T03:17:50.788Z,16.13
2018-08-19T03:18:21.902Z,16.07
2018-08-19T03:18:53.072Z,15.60
2018-08-19T03:19:24.361Z,16.37
2018-08-19T03:19:55.550Z,16.30
2018-08-19T03:20:26.679Z,16.57
2018-08-19T03:20:57.808Z,16.50
2018-08-19T03:21:29.036Z,16.80
2018-08-19T03:22:00.216Z,16.45
2018-08-19T03:22:31.349Z,17.32
2018-08-19T03:23:02.467Z,16.70
2018-08-19T03:23:33.640Z,16.60
2018-08-19T03:24:04.819Z,16.37
2018-08-19T03:24:35.992Z,16.97
2018-08-19T03:25:07.112Z,15.93
2018-08-19T03:25:38.297Z,16.90
2018-08-19T03:26:09.411Z,16.20
2018-08-19T03:26:40.523Z,16.75
2018-08-19T03:27:11.696Z,16.93
2018-08-19T03:27:42.872Z,16.10
2018-08-19T03:28:14.124Z,16.62
2018-08-19T03:28:45.312Z,15.90
2018-08-19T03:29:16.479Z,16.97
2018-08-19T03:29:47.705Z,16.60
2018-08-19T03:30:18.874Z,16.13
2018-08-19T03:30:50.082Z,16.47
2018-08-19T03:31:21.268Z,16.80
2018-08-19T03:31:52.452Z,16.52
2018-08-19T03:32:23.589Z,16.70
2018-08-19T03:32:54.813Z,16.67
2018-08-19T03:33:26.013Z,16.37
2018-08-19T03:33:57.228Z,16.27
2018-08-19T03:34:28.354Z,16.52
2018-08-19T03:34:59.640Z,16.73
2018-08-19T03:35:30.819Z,16.37
2018-08-19T03:36:02.024Z,17.10
2018-08-19T03:36:33.135Z,16.20
2018-08-19T03:37:04.363Z,17.15
2018-08-19T03:37:35.541Z,16.55
2018-08-19T03:38:06.758Z,17.67
2018-08-19T03:38:37.868Z,17.40
2018-08-19T03:39:08.984Z,17.17
2018-08-19T03:39:40.154Z,16.12
2018-08-19T03:40:11.389Z,16.85
2018-08-19T03:40:42.508Z,16.30
2018-08-19T03:41:13.642Z,15.85
2018-08-19T03:41:44.824Z,16.23
2018-08-19T03:42:15.944Z,15.98
2018-08-19T03:42:47.112Z,17.02
2018-08-19T03:43:18.237Z,16.60
2018-08-19T03:43:49.382Z,16.87
2018-08-19T03:44:20.621Z,16.48
2018-08-19T03:44:51.750Z,16.67
2018-08-19T03:45:22.957Z,16.57
2018-08-19T03:45:54.087Z,15.98
2018-08-19T03:46:25.209Z,16.17
2018-08-19T03:46:56.389Z,16.70
2018-08-19T03:47:27.637Z,15.60
2018-08-19T03:47:58.785Z,15.93
2018-08-19T03:48:29.904Z,15.50
2018-08-19T03:49:01.079Z,15.28
2018-08-19T03:49:32.192Z,16.30
2018-08-19T03:50:03.447Z,16.12
2018-08-19T03:50:34.610Z,15.50
2018-08-19T03:51:05.732Z,15.98
2018-08-19T03:51:36.908Z,15.55
2018-08-19T03:52:08.096Z,15.27
2018-08-19T03:52:39.225Z,15.98
2018-08-19T03:53:10.382Z,15.97
2018-08-19T03:53:41.496Z,15.27
2018-08-19T03:54:12.717Z,15.87
2018-08-19T03:54:43.948Z,14.83
2018-08-19T03:55:15.085Z,14.77
2018-08-19T03:55:46.301Z,14.83
2018-08-19T03:56:17.481Z,14.67
2018-08-19T03:56:48.688Z,14.73
2018-08-19T03:57:19.889Z,14.23
2018-08-19T03:57:51.070Z,14.13
2018-08-19T03:58:22.284Z,13.70
2018-08-19T03:58:53.523Z,14.23
2018-08-19T03:59:24.787Z,14.43
2018-08-19T03:59:55.966Z,14.17
2018-08-19T04:00:27.123Z,13.30
2018-08-19T04:00:58.291Z,14.63
2018-08-19T04:01:29.466Z,13.83
2018-08-19T04:02:00.595Z,14.93
2018-08-19T04:02:31.703Z,14.37
2018-08-19T04:03:02.815Z,14.83
2018-08-19T04:03:33.985Z,14.60
2018-08-19T04:04:05.094Z,14.13
2018-08-19T04:04:36.274Z,14.87
2018-08-19T04:05:07.510Z,14.20
2018-08-19T04:05:38.781Z,14.50
2018-08-19T04:06:09.908Z,13.57
2018-08-19T04:06:41.076Z,14.30
2018-08-19T04:07:12.276Z,14.30
2018-08-19T04:07:43.452Z,13.80
2018-08-19T04:08:14.646Z,14.17
2018-08-19T04:08:45.766Z,14.57
2018-08-19T04:09:16.936Z,14.53
2018-08-19T04:09:48.185Z,14.80
2018-08-19T04:10:19.355Z,14.40
2018-08-19T04:10:50.517Z,14.47
2018-08-19T04:11:21.913Z,14.50
2018-08-19T04:11:53.080Z,14.60
2018-08-19T04:12:24.248Z,15.10
2018-08-19T04:12:55.369Z,14.93
2018-08-19T04:13:26.487Z,14.77
2018-08-19T04:13:57.602Z,15.13
2018-08-19T04:14:28.715Z,14.27
2018-08-19T04:14:59.901Z,14.60
2018-08-19T04:15:31.026Z,14.23
2018-08-19T04:16:02.242Z,14.27
2018-08-19T04:16:33.438Z,13.40
2018-08-19T04:17:04.550Z,14.20
2018-08-19T04:17:35.758Z,14.40
2018-08-19T04:18:06.876Z,14.90
2018-08-19T04:18:38.736Z,14.30
2018-08-19T04:19:09.905Z,14.07
2018-08-19T04:19:41.025Z,14.13
2018-08-19T04:20:12.132Z,13.93
2018-08-19T04:20:43.296Z,13.83
2018-08-19T04:21:14.511Z,14.00
2018-08-19T04:21:45.748Z,14.17
2018-08-19T04:22:16.867Z,14.07
2018-08-19T04:22:48.045Z,14.50
2018-08-19T04:23:19.210Z,13.83
2018-08-19T04:23:50.405Z,14.27
2018-08-19T04:24:21.567Z,13.30
2018-08-19T04:24:52.803Z,13.77
2018-08-19T04:25:23.987Z,13.97
2018-08-19T04:25:55.180Z,13.30
2018-08-19T04:26:26.339Z,13.43
2018-08-19T04:26:57.512Z,13.80
2018-08-19T04:27:28.713Z,12.90
2018-08-19T04:27:59.887Z,13.43
2018-08-19T04:28:31.011Z,14.07
2018-08-19T04:29:02.162Z,13.33
2018-08-19T04:29:33.275Z,12.63
2018-08-19T04:30:04.468Z,13.20
2018-08-19T04:30:35.595Z,13.57
2018-08-19T04:31:06.769Z,12.73
2018-08-19T04:31:37.920Z,13.67
2018-08-19T04:32:09.142Z,13.73
2018-08-19T04:32:40.344Z,13.13
2018-08-19T04:33:11.455Z,13.83
2018-08-19T04:33:42.655Z,13.13
2018-08-19T04:34:13.825Z,13.17
2018-08-19T04:34:44.988Z,13.17
2018-08-19T04:35:16.239Z,12.80
2018-08-19T04:35:47.425Z,13.13
2018-08-19T04:36:18.643Z,13.30
2018-08-19T04:36:49.796Z,13.23
2018-08-19T04:37:20.979Z,13.13
2018-08-19T04:37:52.161Z,12.73
2018-08-19T04:38:23.336Z,12.13
2018-08-19T04:38:54.458Z,13.10
2018-08-19T04:39:25.572Z,13.30
2018-08-19T04:39:56.748Z,12.93
2018-08-19T04:40:27.937Z,14.00
2018-08-19T04:40:59.072Z,12.33
2018-08-19T04:41:30.305Z,12.40
2018-08-19T04:42:01.477Z,12.10
2018-08-19T04:42:32.602Z,13.27
2018-08-19T04:43:03.740Z,12.43
2018-08-19T04:43:34.848Z,13.20
2018-08-19T04:44:05.968Z,12.13
2018-08-19T04:44:37.155Z,12.03
2018-08-19T04:45:08.400Z,11.97
2018-08-19T04:45:39.614Z,11.50
2018-08-19T04:46:10.750Z,11.83
2018-08-19T04:46:41.916Z,12.40
2018-08-19T04:47:13.075Z,11.93
2018-08-19T04:47:44.257Z,11.40
2018-08-19T04:48:15.449Z,12.47
2018-08-19T04:48:46.631Z,11.37
2018-08-19T04:49:17.801Z,12.23
2018-08-19T04:49:48.936Z,11.37
2018-08-19T04:50:20.128Z,11.37
2018-08-19T04:50:51.253Z,11.63
2018-08-19T04:51:22.444Z,11.17
2018-08-19T04:51:53.568Z,11.60
2018-08-19T04:52:24.783Z,11.00
2018-08-19T04:52:56.029Z,12.30
2018-08-19T04:53:27.396Z,11.13
2018-08-19T04:53:58.628Z,11.40
2018-08-19T04:54:29.898Z,11.67
2018-08-19T04:55:01.024Z,11.77
2018-08-19T04:55:32.143Z,11.47
2018-08-19T04:56:03.260Z,10.63
2018-08-19T04:56:34.501Z,11.40
2018-08-19T04:57:05.703Z,10.93
2018-08-19T04:57:36.869Z,11.37
2018-08-19T04:58:08.065Z,11.13
2018-08-19T04:58:39.186Z,11.57
2018-08-19T04:59:10.435Z,10.77
2018-08-19T04:59:41.657Z,11.40
2018-08-19T05:00:12.838Z,12.10
2018-08-19T05:00:44.036Z,11.43
2018-08-19T05:01:15.221Z,11.10
2018-08-19T05:01:46.354Z,11.30
2018-08-19T05:02:17.567Z,11.03
2018-08-19T05:02:48.611Z,10.87
2018-08-19T05:03:19.780Z,11.30
2018-08-19T05:03:50.960Z,11.47
2018-08-19T05:04:22.185Z,11.10
2018-08-19T05:04:53.378Z,11.00
2018-08-19T05:05:24.561Z,11.63
2018-08-19T05:05:55.697Z,11.57
2018-08-19T05:06:26.880Z,11.53
2018-08-19T05:06:58.007Z,11.37
2018-08-19T05:07:29.179Z,11.93
2018-08-19T05:08:00.418Z,11.07
2018-08-19T05:08:31.591Z,11.40
2018-08-19T05:09:02.678Z,11.33
2018-08-19T05:09:33.844Z,11.50
2018-08-19T05:10:04.962Z,11.50
2018-08-19T05:10:36.073Z,11.33
2018-08-19T05:11:07.305Z,11.40
2018-08-19T05:11:38.423Z,10.43
2018-08-19T05:12:09.605Z,11.23
2018-08-19T05:12:40.772Z,11.70
2018-08-19T05:13:11.891Z,12.20
2018-08-19T05:13:43.007Z,11.10
2018-08-19T05:14:14.240Z,11.43
2018-08-19T05:14:45.375Z,11.20
2018-08-19T05:15:16.495Z,10.57
2018-08-19T05:15:47.710Z,11.53
2018-08-19T05:16:19.002Z,12.07
2018-08-19T05:16:50.131Z,11.97
2018-08-19T05:17:21.308Z,11.97
2018-08-19T05:17:52.429Z,11.80
2018-08-19T05:18:23.595Z,11.67
2018-08-19T05:18:54.785Z,11.70
2018-08-19T05:19:26.017Z,11.87
2018-08-19T05:19:57.208Z,11.47
2018-08-19T05:20:28.370Z,10.93
2018-08-19T05:20:59.490Z,11.50
2018-08-19T05:21:30.735Z,10.40
2018-08-19T05:22:01.904Z,11.90
2018-08-19T05:22:33.126Z,11.07
2018-08-19T05:23:04.186Z,11.27
2018-08-19T05:23:35.387Z,11.13
2018-08-19T05:24:06.564Z,11.23
2018-08-19T05:24:37.700Z,11.30
2018-08-19T05:25:08.827Z,11.73
2018-08-19T05:25:40.024Z,10.87
2018-08-19T05:26:11.221Z,10.47
2018-08-19T05:26:42.428Z,11.20
2018-08-19T05:27:13.593Z,11.08
2018-08-19T05:27:44.722Z,10.93
2018-08-19T05:28:15.947Z,11.15
2018-08-19T05:28:47.059Z,10.70
2018-08-19T05:29:18.330Z,10.72
2018-08-19T05:29:49.500Z,11.95
2018-08-19T05:30:20.624Z,11.10
2018-08-19T05:30:51.736Z,11.03
2018-08-19T05:31:22.915Z,11.30
2018-08-19T05:31:54.048Z,11.27
2018-08-19T05:32:25.265Z,11.17
2018-08-19T05:32:56.419Z,11.68
2018-08-19T05:33:27.640Z,10.90
2018-08-19T05:33:58.769Z,11.70
2018-08-19T05:34:29.877Z,11.13
2018-08-19T05:35:01.077Z,10.70
2018-08-19T05:35:32.260Z,10.53
2018-08-19T05:36:04.276Z,10.90
2018-08-19T05:36:35.534Z,10.80
2018-08-19T05:37:06.660Z,11.00
2018-08-19T05:37:37.841Z,11.13
2018-08-19T05:38:09.041Z,10.90
2018-08-19T05:38:40.144Z,10.83
2018-08-19T05:39:11.313Z,10.60
2018-08-19T05:39:42.808Z,10.10
2018-08-19T05:40:14.011Z,11.00
2018-08-19T05:40:45.225Z,10.60
2018-08-19T05:41:16.395Z,11.27
2018-08-19T05:41:47.517Z,10.57
2018-08-19T05:42:18.684Z,10.73
2018-08-19T05:42:49.857Z,10.37
2018-08-19T05:43:21.053Z,11.10
2018-08-19T05:43:52.156Z,11.07
2018-08-19T05:44:23.334Z,11.20
2018-08-19T05:44:54.444Z,11.10
2018-08-19T05:45:25.552Z,11.10
2018-08-19T05:45:56.687Z,11.00
2018-08-19T05:46:27.863Z,11.60
2018-08-19T05:46:59.050Z,10.13
2018-08-19T05:47:30.220Z,10.30
2018-08-19T05:48:01.381Z,11.30
2018-08-19T05:48:32.577Z,10.03
2018-08-19T05:49:03.795Z,10.33
2018-08-19T05:49:34.965Z,10.07
2018-08-19T05:50:06.161Z,9.83
2018-08-19T05:50:37.282Z,9.43
2018-08-19T05:51:08.407Z,10.13
2018-08-19T05:51:39.519Z,10.07
2018-08-19T05:52:10.625Z,10.40
2018-08-19T05:52:41.740Z,9.90
2018-08-19T05:53:12.910Z,10.03
2018-08-19T05:53:44.108Z,10.58
2018-08-19T05:54:15.242Z,10.20
2018-08-19T05:54:46.349Z,9.83
2018-08-19T05:55:17.504Z,10.20
2018-08-19T05:55:48.613Z,9.57
2018-08-19T05:56:19.792Z,9.28
2018-08-19T05:56:50.973Z,9.45
2018-08-19T05:57:22.151Z,9.48
2018-08-19T05:57:53.317Z,9.87
2018-08-19T05:58:24.436Z,9.70
2018-08-19T05:58:55.612Z,9.45
2018-08-19T05:59:26.739Z,10.05
2018-08-19T05:59:57.847Z,9.75
2018-08-19T06:00:29.008Z,9.83
2018-08-19T06:01:00.257Z,9.00
2018-08-19T06:01:31.477Z,9.70
2018-08-19T06:02:02.592Z,9.98
2018-08-19T06:02:33.760Z,10.07
2018-08-19T06:03:04.975Z,10.03
2018-08-19T06:03:36.205Z,9.87
2018-08-19T06:04:07.515Z,9.33
2018-08-19T06:04:38.633Z,9.68
2018-08-19T06:05:09.805Z,9.27
2018-08-19T06:05:41.024Z,8.93
2018-08-19T06:06:12.194Z,9.47
2018-08-19T06:06:43.372Z,9.58
2018-08-19T06:07:14.488Z,8.78
2018-08-19T06:07:45.603Z,9.23
2018-08-19T06:08:16.788Z,8.88
2018-08-19T06:08:47.895Z,9.10
2018-08-19T06:09:19.013Z,9.10
2018-08-19T06:09:50.175Z,8.85
2018-08-19T06:10:21.348Z,9.00
2018-08-19T06:10:52.555Z,8.48
2018-08-19T06:11:23.679Z,8.65
2018-08-19T06:11:54.786Z,8.98
2018-08-19T06:12:26.008Z,8.58
2018-08-19T06:12:57.133Z,9.40
2018-08-19T06:13:28.257Z,9.73
2018-08-19T06:13:59.375Z,9.13
2018-08-19T06:14:30.568Z,8.65
2018-08-19T06:15:01.760Z,8.45
2018-08-19T06:15:32.920Z,8.53
2018-08-19T06:16:04.134Z,9.10
2018-08-19T06:16:35.294Z,9.25
2018-08-19T06:17:06.530Z,8.30
2018-08-19T06:17:37.742Z,8.45
2018-08-19T06:18:08.924Z,8.60
2018-08-19T06:18:40.036Z,7.95
2018-08-19T06:19:11.145Z,8.60
2018-08-19T06:19:42.308Z,8.18
2018-08-19T06:20:13.482Z,8.60
2018-08-19T06:20:44.605Z,7.95
2018-08-19T06:21:15.730Z,8.03
2018-08-19T06:21:46.899Z,8.28
2018-08-19T06:22:18.130Z,8.10
2018-08-19T06:22:49.340Z,8.33
2018-08-19T06:23:20.460Z,8.40
2018-08-19T06:23:51.572Z,8.00
2018-08-19T06:24:22.801Z,8.73
2018-08-19T06:24:53.997Z,8.53
2018-08-19T06:25:25.173Z,8.40
2018-08-19T06:25:56.344Z,8.30
2018-08-19T06:26:27.505Z,8.25
2018-08-19T06:26:58.614Z,8.63
2018-08-19T06:27:29.724Z,8.05
2018-08-19T06:28:00.884Z,8.07
2018-08-19T06:28:32.005Z,8.45
2018-08-19T06:29:03.220Z,8.57
2018-08-19T06:29:34.408Z,8.37
2018-08-19T06:30:05.612Z,8.37
2018-08-19T06:30:36.787Z,8.60
2018-08-19T06:31:08.008Z,8.90
2018-08-19T06:31:39.160Z,8.83
2018-08-19T06:32:10.256Z,8.40
2018-08-19T06:32:41.421Z,8.48
2018-08-19T06:33:12.603Z,8.43
2018-08-19T06:33:43.802Z,9.53
2018-08-19T06:34:14.963Z,8.63
2018-08-19T06:34:46.174Z,8.43
2018-08-19T06:35:17.333Z,8.50
2018-08-19T06:35:48.452Z,8.30
2018-08-19T06:36:19.567Z,8.43
2018-08-19T06:36:50.777Z,8.67
2018-08-19T06:37:21.979Z,8.03
2018-08-19T06:37:53.876Z,8.50
2018-08-19T06:38:25.058Z,8.73
2018-08-19T06:38:56.169Z,8.27
2018-08-19T06:39:27.405Z,8.35
2018-08-19T06:39:58.569Z,8.63
2018-08-19T06:40:29.741Z,8.25
2018-08-19T06:41:00.917Z,9.05
2018-08-19T06:41:32.027Z,8.38
2018-08-19T06:42:03.135Z,9.18
2018-08-19T06:42:34.271Z,9.10
2018-08-19T06:43:05.441Z,8.40